Morrill, Nebraska
Current Conditions -  °F | °C
As of 7:53 AM on Sunday 21 Dec 2014 (Local Time) from KBFF Reporting Station
Clear Clear  
Wind Chill: 14°   Ceiling: Unl
Heat Index: 23°   Visibility: 10mi
Dew Point: 18°   Wind: 8mph
Humidity: 81%   Direction: 100°E
Pressure: 29.62"   Gusts: NA
Location:  41.96°N, 103.93°W
Report Text: KBFF 211453Z AUTO 10007KT 10SM CLR M05/M08 A2962 RMK AO2 SLP058 T10501078 58027
Loading
Personal Weather Stations






























Interactive Weather Map New forecast layout! Learn more

10-Day Weather Forecast

Advertisements
Track Severe Weather on mobile